createdAt,value
2022-08-19T05:42:08.795Z,16.70
2022-08-19T05:44:39.767Z,16.70
2022-08-19T05:47:09.443Z,16.70
2022-08-19T05:49:37.743Z,16.80
2022-08-19T05:52:07.204Z,16.70
2022-08-19T05:54:34.672Z,16.70
2022-08-19T05:57:02.895Z,16.80
2022-08-19T05:59:29.583Z,16.80
2022-08-19T06:01:58.485Z,16.90
2022-08-19T06:04:25.512Z,16.90
2022-08-19T06:06:54.705Z,16.90
2022-08-19T06:09:23.035Z,17.00
2022-08-19T06:11:56.066Z,17.00
2022-08-19T06:14:28.013Z,17.00
2022-08-19T06:16:55.264Z,17.10
2022-08-19T06:19:25.085Z,17.20
2022-08-19T06:21:53.110Z,17.30
2022-08-19T06:24:24.901Z,17.30
2022-08-19T06:26:56.723Z,17.40
2022-08-19T06:29:26.541Z,17.40
2022-08-19T06:31:59.029Z,17.50
2022-08-19T06:34:28.905Z,17.50
2022-08-19T06:36:57.845Z,17.60
2022-08-19T06:39:28.048Z,17.60
2022-08-19T06:41:58.975Z,17.70
2022-08-19T06:44:28.763Z,17.80
2022-08-19T06:46:57.701Z,17.90
2022-08-19T06:49:25.979Z,17.90
2022-08-19T06:51:52.820Z,18.00
2022-08-19T06:54:20.417Z,18.00
2022-08-19T06:56:48.024Z,18.00
2022-08-19T06:59:18.823Z,18.10
2022-08-19T07:01:52.262Z,18.20
2022-08-19T07:04:22.823Z,18.20
2022-08-19T07:06:55.089Z,18.30
2022-08-19T07:09:22.108Z,18.40
2022-08-19T07:11:51.474Z,18.50
2022-08-19T07:14:26.113Z,18.60
2022-08-19T07:16:55.862Z,18.60
2022-08-19T07:19:24.326Z,18.70
2022-08-19T07:21:55.373Z,18.80
2022-08-19T07:24:25.611Z,18.80
2022-08-19T07:26:55.672Z,18.80
2022-08-19T07:29:28.525Z,18.90
2022-08-19T07:32:00.888Z,18.90
2022-08-19T07:34:29.734Z,19.00
2022-08-19T07:36:58.898Z,19.00
2022-08-19T07:39:31.645Z,19.10
2022-08-19T07:42:00.575Z,19.10
2022-08-19T07:44:27.935Z,19.20
2022-08-19T07:46:57.370Z,19.30
2022-08-19T07:49:24.599Z,19.20
2022-08-19T07:51:57.527Z,19.30
2022-08-19T07:54:26.571Z,19.30
2022-08-19T07:56:53.555Z,19.40
2022-08-19T07:59:21.570Z,19.40
2022-08-19T08:01:49.008Z,19.50
2022-08-19T08:04:34.552Z,19.50
2022-08-19T08:07:19.890Z,19.70
2022-08-19T08:09:49.608Z,19.90
2022-08-19T08:12:34.057Z,20.00
2022-08-19T08:15:08.356Z,20.30
2022-08-19T08:17:49.409Z,20.50
2022-08-19T08:20:19.310Z,20.50
2022-08-19T08:23:06.094Z,20.40
2022-08-19T08:25:34.477Z,20.40
2022-08-19T08:28:02.407Z,20.40
2022-08-19T08:30:33.281Z,20.40
2022-08-19T08:33:02.472Z,20.30
2022-08-19T08:35:29.728Z,20.30
2022-08-19T08:37:57.680Z,20.30
2022-08-19T08:40:39.859Z,20.30
2022-08-19T08:43:32.195Z,20.50
2022-08-19T08:46:31.042Z,20.60
2022-08-19T08:49:26.156Z,20.70
2022-08-19T08:52:01.648Z,20.70
2022-08-19T08:54:35.674Z,20.90
2022-08-19T08:57:04.909Z,21.20
2022-08-19T08:59:35.488Z,21.00
2022-08-19T09:02:02.491Z,20.90
2022-08-19T09:04:29.999Z,21.10
2022-08-19T09:07:36.063Z,21.10
2022-08-19T09:10:32.490Z,21.10
2022-08-19T09:13:02.725Z,21.20
2022-08-19T09:15:41.987Z,21.20
2022-08-19T09:18:15.099Z,21.40
2022-08-19T09:20:42.604Z,21.50
2022-08-19T09:23:11.704Z,21.70
2022-08-19T09:25:38.542Z,22.10
2022-08-19T09:28:05.690Z,21.90
2022-08-19T09:30:42.792Z,21.60
2022-08-19T09:33:09.961Z,21.60
2022-08-19T09:35:49.461Z,21.90
2022-08-19T09:38:20.149Z,22.10
2022-08-19T09:40:46.862Z,22.00
2022-08-19T09:43:13.650Z,22.00
2022-08-19T09:45:40.877Z,22.20
2022-08-19T09:48:07.518Z,22.10
2022-08-19T09:50:51.676Z,21.90
2022-08-19T09:53:19.619Z,21.90
2022-08-19T09:55:49.526Z,22.00
2022-08-19T09:58:18.372Z,21.80
2022-08-19T10:00:51.032Z,22.00
2022-08-19T10:03:18.368Z,22.00
2022-08-19T10:05:55.313Z,22.00
2022-08-19T10:08:33.855Z,22.10
2022-08-19T10:11:28.320Z,22.40
2022-08-19T10:13:49.693Z,22.40
2022-08-19T10:16:20.915Z,22.60
2022-08-19T10:18:49.642Z,22.80
2022-08-19T10:21:22.946Z,23.10
2022-08-19T10:23:56.355Z,23.00
2022-08-19T10:26:28.517Z,23.20
2022-08-19T10:28:57.204Z,23.40
2022-08-19T10:32:01.947Z,22.90
2022-08-19T10:34:27.100Z,23.10
2022-08-19T10:36:56.273Z,23.00
2022-08-19T10:39:30.757Z,23.00
2022-08-19T10:41:58.163Z,23.20
2022-08-19T10:44:25.048Z,23.30
2022-08-19T10:46:59.840Z,23.20
2022-08-19T10:49:26.612Z,23.40
2022-08-19T10:52:18.565Z,23.30
2022-08-19T10:55:08.133Z,23.50
2022-08-19T11:00:24.064Z,23.20
2022-08-19T11:02:51.543Z,23.30
2022-08-19T11:05:19.202Z,23.70
2022-08-19T11:07:46.357Z,23.60
2022-08-19T11:10:19.475Z,23.50
2022-08-19T11:12:48.127Z,23.60
2022-08-19T11:15:15.130Z,23.80
2022-08-19T11:17:42.743Z,23.80
2022-08-19T11:20:10.703Z,24.20
2022-08-19T11:22:41.672Z,24.20
2022-08-19T11:25:10.747Z,24.60
2022-08-19T11:27:44.377Z,24.50
2022-08-19T11:30:13.114Z,24.70
2022-08-19T11:32:45.666Z,24.60
2022-08-19T11:35:15.939Z,24.90
2022-08-19T11:37:42.625Z,24.70
2022-08-19T11:40:10.168Z,24.70
2022-08-19T11:42:55.808Z,25.00
2022-08-19T11:45:23.357Z,25.00
2022-08-19T11:47:50.287Z,25.20
2022-08-19T11:50:17.580Z,24.90
2022-08-19T11:52:46.075Z,25.10
2022-08-19T11:55:14.484Z,25.30
2022-08-19T11:57:44.787Z,25.00
2022-08-19T12:00:13.831Z,25.30
2022-08-19T12:02:41.538Z,25.20
2022-08-19T12:05:12.231Z,24.90
2022-08-19T12:07:42.330Z,25.30
2022-08-19T12:10:10.686Z,25.80
2022-08-19T12:12:43.202Z,25.70
2022-08-19T12:15:11.887Z,25.40
2022-08-19T12:17:39.330Z,25.80
2022-08-19T12:20:07.646Z,26.00
2022-08-19T12:22:34.455Z,25.70
2022-08-19T12:25:01.771Z,25.80
2022-08-19T12:27:40.316Z,25.60
2022-08-19T12:30:11.378Z,25.20
2022-08-19T12:32:38.561Z,25.00
2022-08-19T12:35:06.621Z,25.10
2022-08-19T12:37:33.550Z,25.10
2022-08-19T12:40:00.514Z,25.70
2022-08-19T12:42:27.681Z,25.80
2022-08-19T12:44:54.684Z,25.70
2022-08-19T12:47:21.963Z,26.00
2022-08-19T12:49:53.954Z,25.40
2022-08-19T12:52:28.083Z,25.70
2022-08-19T12:54:56.586Z,26.30
2022-08-19T12:57:32.684Z,25.80
2022-08-19T13:00:04.838Z,25.40
2022-08-19T13:02:33.135Z,25.40
2022-08-19T13:05:07.847Z,25.30
2022-08-19T13:07:34.528Z,25.20
2022-08-19T13:10:01.482Z,25.20
2022-08-19T13:12:28.124Z,25.30
2022-08-19T13:14:55.751Z,25.40
2022-08-19T13:17:23.097Z,25.80
2022-08-19T13:19:49.829Z,25.60
2022-08-19T13:22:16.590Z,25.40
2022-08-19T13:24:47.047Z,25.50
2022-08-19T13:27:14.775Z,25.30
2022-08-19T13:30:03.093Z,25.20
2022-08-19T13:32:49.032Z,25.10
2022-08-19T13:35:17.184Z,24.90
2022-08-19T13:37:44.710Z,24.90
2022-08-19T13:40:21.087Z,25.00
2022-08-19T13:42:50.692Z,24.90
2022-08-19T13:45:20.567Z,24.90
2022-08-19T13:47:48.816Z,24.30
2022-08-19T13:50:18.482Z,23.50
2022-08-19T13:52:45.524Z,23.30
2022-08-19T13:55:13.336Z,22.90
2022-08-19T13:57:40.142Z,22.80
2022-08-19T14:00:19.302Z,22.60
2022-08-19T14:02:48.095Z,22.60
2022-08-19T14:05:16.775Z,22.60
2022-08-19T14:07:43.568Z,22.90
2022-08-19T14:10:12.600Z,22.80
2022-08-19T14:12:39.716Z,22.70
2022-08-19T14:15:09.408Z,23.00
2022-08-19T14:17:39.491Z,22.50
2022-08-19T14:20:10.864Z,22.40
2022-08-19T14:22:39.594Z,22.30
2022-08-19T14:25:11.203Z,22.50
2022-08-19T14:27:39.926Z,22.50
2022-08-19T14:30:13.257Z,22.30
2022-08-19T14:32:40.215Z,22.40
2022-08-19T14:35:08.391Z,22.40
2022-08-19T14:37:37.253Z,22.40
2022-08-19T14:40:18.590Z,22.40
2022-08-19T14:42:45.724Z,22.40
2022-08-19T14:45:12.953Z,22.40
2022-08-19T14:47:40.855Z,22.60
2022-08-19T14:50:18.438Z,22.80
2022-08-19T14:52:49.322Z,22.80
2022-08-19T14:55:19.463Z,22.90
2022-08-19T14:57:46.407Z,22.90
2022-08-19T15:00:14.461Z,22.80
2022-08-19T15:02:42.562Z,22.70
2022-08-19T15:05:09.871Z,22.80
2022-08-19T15:07:36.987Z,22.70
2022-08-19T15:10:05.085Z,22.80
2022-08-19T15:12:31.686Z,23.10
2022-08-19T15:14:58.305Z,23.20
2022-08-19T15:17:45.816Z,23.30
2022-08-19T15:20:16.743Z,23.40
2022-08-19T15:22:43.497Z,23.40
2022-08-19T15:25:13.319Z,23.50
2022-08-19T15:27:41.884Z,23.50
2022-08-19T15:30:10.489Z,23.40
2022-08-19T15:32:38.332Z,23.60
2022-08-19T15:35:07.343Z,23.50
2022-08-19T15:37:37.106Z,23.70
2022-08-19T15:40:06.037Z,23.90
2022-08-19T15:42:33.101Z,23.80
2022-08-19T15:45:00.406Z,23.80
2022-08-19T15:47:34.900Z,23.60
2022-08-19T15:50:15.429Z,23.70
2022-08-19T15:52:56.482Z,23.60
2022-08-19T15:55:34.104Z,23.50
2022-08-19T15:58:28.920Z,23.50
2022-08-19T16:01:20.427Z,23.50
2022-08-19T16:04:15.014Z,23.70
2022-08-19T16:06:53.530Z,23.70
2022-08-19T16:09:27.238Z,24.00
2022-08-19T16:11:57.225Z,24.20
2022-08-19T16:14:30.183Z,24.10
2022-08-19T16:16:57.110Z,24.10
2022-08-19T16:19:24.632Z,23.90
2022-08-19T16:21:54.260Z,23.80
2022-08-19T16:24:23.784Z,23.80
2022-08-19T16:26:50.974Z,23.60
2022-08-19T16:29:30.244Z,23.40
2022-08-19T16:32:04.044Z,23.40
2022-08-19T16:34:31.678Z,23.40
2022-08-19T16:36:59.479Z,23.40
2022-08-19T16:39:26.110Z,23.40
2022-08-19T16:41:52.795Z,23.30
2022-08-19T16:44:20.896Z,23.40
2022-08-19T16:46:58.481Z,23.50
2022-08-19T16:49:53.976Z,23.40
2022-08-19T16:52:14.939Z,23.50
2022-08-19T16:54:43.784Z,23.50
2022-08-19T16:57:12.330Z,23.60
2022-08-19T16:59:48.298Z,23.50
2022-08-19T17:02:19.019Z,23.50
2022-08-19T17:04:58.318Z,23.70
2022-08-19T17:07:27.173Z,23.80
2022-08-19T17:09:53.856Z,23.70
2022-08-19T17:12:22.213Z,23.40
2022-08-19T17:14:57.696Z,23.40
2022-08-19T17:17:28.758Z,23.40
2022-08-19T17:19:55.953Z,23.30
2022-08-19T17:22:22.649Z,23.30
2022-08-19T17:24:49.430Z,23.30
2022-08-19T17:27:16.144Z,23.10
2022-08-19T17:29:46.846Z,23.10
2022-08-19T17:32:14.449Z,23.20
2022-08-19T17:34:41.136Z,23.20
2022-08-19T17:37:07.987Z,23.20
2022-08-19T17:39:38.901Z,23.10
2022-08-19T17:42:07.296Z,23.10
2022-08-19T17:44:36.593Z,23.00
2022-08-19T17:47:04.324Z,23.10
2022-08-19T17:49:33.380Z,23.10
2022-08-19T17:52:00.803Z,23.10
2022-08-19T17:54:33.263Z,23.10
2022-08-19T17:57:01.339Z,23.00
2022-08-19T17:59:30.203Z,23.00
2022-08-19T18:01:57.532Z,22.90
2022-08-19T18:04:25.956Z,22.70
2022-08-19T18:06:55.126Z,22.60
2022-08-19T18:09:38.624Z,22.40
2022-08-19T18:12:11.144Z,22.50
2022-08-19T18:14:39.299Z,22.60
2022-08-19T18:17:09.944Z,22.40
2022-08-19T18:19:41.345Z,22.40
2022-08-19T18:22:11.807Z,22.40
2022-08-19T18:24:40.384Z,22.40
2022-08-19T18:27:07.207Z,22.40
2022-08-19T18:29:34.200Z,22.30
2022-08-19T18:32:00.896Z,22.20
2022-08-19T18:34:29.395Z,22.30
2022-08-19T18:36:56.107Z,22.10
2022-08-19T18:39:44.262Z,22.20
2022-08-19T18:42:35.093Z,22.20
2022-08-19T18:45:20.887Z,22.10
2022-08-19T18:48:06.391Z,22.10
2022-08-19T18:50:41.505Z,22.20
2022-08-19T18:53:08.246Z,22.10
2022-08-19T18:55:34.892Z,22.10
2022-08-19T18:58:02.690Z,22.00
2022-08-19T19:00:30.254Z,21.90
2022-08-19T19:02:56.959Z,21.90
2022-08-19T19:05:25.625Z,22.00
2022-08-19T19:07:54.254Z,22.00
2022-08-19T19:10:20.993Z,21.90
2022-08-19T19:12:48.735Z,21.90
2022-08-19T19:15:15.401Z,21.90
2022-08-19T19:17:42.134Z,21.90
2022-08-19T19:20:08.940Z,21.80
2022-08-19T19:22:35.884Z,21.70
2022-08-19T19:25:02.702Z,21.60
2022-08-19T19:27:29.376Z,21.60
2022-08-19T19:29:56.182Z,21.60
2022-08-19T19:32:26.902Z,21.60
2022-08-19T19:34:54.446Z,21.50
2022-08-19T19:37:22.463Z,21.50
2022-08-19T19:39:49.210Z,21.40
2022-08-19T19:42:20.456Z,21.40
2022-08-19T19:44:50.149Z,21.40
2022-08-19T19:47:18.435Z,21.20
2022-08-19T19:50:13.681Z,21.10
2022-08-19T19:52:38.991Z,21.10
2022-08-19T19:55:07.232Z,21.10
2022-08-19T19:57:34.045Z,21.20
2022-08-19T20:00:00.807Z,21.10
2022-08-19T20:02:27.589Z,21.10
2022-08-19T20:04:56.230Z,21.00
2022-08-19T20:07:43.029Z,21.10
2022-08-19T20:10:09.819Z,21.10
2022-08-19T20:12:36.511Z,21.00
2022-08-19T20:15:04.819Z,21.00
2022-08-19T20:17:32.459Z,21.00
2022-08-19T20:19:59.088Z,21.00
2022-08-19T20:22:25.906Z,20.90
2022-08-19T20:24:53.768Z,20.90
2022-08-19T20:27:21.610Z,21.00
2022-08-19T20:29:53.408Z,20.90
2022-08-19T20:32:20.094Z,20.90
2022-08-19T20:34:49.029Z,20.90
2022-08-19T20:37:16.088Z,20.90
2022-08-19T20:39:42.932Z,20.80
2022-08-19T20:42:09.652Z,20.80
2022-08-19T20:44:37.040Z,20.80
2022-08-19T20:47:04.289Z,20.80
2022-08-19T20:49:32.465Z,20.90
2022-08-19T20:51:59.162Z,20.90
2022-08-19T20:54:26.840Z,20.90
2022-08-19T20:56:54.275Z,20.90
2022-08-19T20:59:21.956Z,20.80
2022-08-19T21:01:51.673Z,20.80
